Time;durP1;ratioP1;P1;durP2;ratioP2;P2;SDS_P1;SDS_P2;PMS_P1;PMS_P2;Temp;Humidity;BMP_temperature;BMP_pressure;BME280_temperature;BME280_humidity;BME280_pressure;Samples;Min_cycle;Max_cycle;Signal;HPM_P1;HPM_P2
2023/04/04 00:00:50;;;;;;;3.88;2.00;;;;;;;18.85;45.26;100967.31;5054032;28;20049;-50
2023/04/04 00:03:17;;;;;;;3.20;1.77;;;;;;;18.85;45.20;100962.81;5053520;28;20391;-50
2023/04/04 00:05:45;;;;;;;4.22;1.40;;;;;;;18.85;45.28;100960.13;5053517;28;20048;-57
2023/04/04 00:08:12;;;;;;;5.25;1.90;;;;;;;18.85;45.32;100961.97;5053352;28;20048;-56
2023/04/04 00:10:40;;;;;;;4.70;2.05;;;;;;;18.84;45.59;100952.19;5053479;28;20044;-57
2023/04/04 00:13:08;;;;;;;3.88;2.00;;;;;;;18.83;45.16;100956.69;5053298;28;20053;-56
2023/04/04 00:15:35;;;;;;;5.55;2.08;;;;;;;18.84;45.37;100958.44;5053396;28;20045;-49
2023/04/04 00:18:03;;;;;;;6.03;1.95;;;;;;;18.84;45.35;100962.91;5053400;28;20048;-49
2023/04/04 00:20:30;;;;;;;2.75;1.95;;;;;;;18.83;45.31;100962.06;5053448;28;20049;-50
2023/04/04 00:22:57;;;;;;;2.72;1.52;;;;;;;18.83;45.31;100962.06;5053332;28;20053;-49
2023/04/04 00:25:25;;;;;;;4.00;2.03;;;;;;;18.83;45.44;100964.75;5053130;28;20060;-49
2023/04/04 00:27:52;;;;;;;3.55;1.65;;;;;;;18.82;45.28;100968.41;5053252;28;20052;-48
2023/04/04 00:30:19;;;;;;;4.53;2.35;;;;;;;18.83;45.34;100959.38;5053353;28;20049;-49
2023/04/04 00:32:47;;;;;;;4.00;2.20;;;;;;;18.82;45.43;100956.84;5053251;28;20052;-50
2023/04/04 00:35:14;;;;;;;3.08;1.90;;;;;;;18.81;45.43;100960.50;5053361;28;20056;-48
2023/04/04 00:37:42;;;;;;;4.28;2.13;;;;;;;18.82;45.41;100963.06;5052114;28;20480;-50
2023/04/04 00:40:10;;;;;;;3.35;1.88;;;;;;;18.81;45.35;100958.69;5053175;28;20053;-51
2023/04/04 00:42:37;;;;;;;4.05;1.80;;;;;;;18.81;45.51;100964.03;5053424;28;20399;-49
2023/04/04 00:45:08;;;;;;;3.67;1.90;;;;;;;18.80;45.34;100964.16;5053195;28;20041;-57
2023/04/04 00:47:36;;;;;;;4.05;2.00;;;;;;;18.81;45.32;100963.19;5053170;28;20069;-56
2023/04/04 00:50:05;;;;;;;2.85;1.80;;;;;;;18.81;45.44;100957.81;5052015;28;20052;-56
2023/04/04 00:52:33;;;;;;;3.42;1.83;;;;;;;18.81;45.35;100957.81;5052778;28;20063;-57
2023/04/04 00:55:00;;;;;;;5.95;1.70;;;;;;;18.80;45.27;100956.97;5052803;28;20049;-50
2023/04/04 00:57:28;;;;;;;3.72;1.73;;;;;;;18.80;45.36;100956.09;5052817;28;20044;-51
2023/04/04 00:59:58;;;;;;;3.75;1.80;;;;;;;18.78;45.31;100962.44;5052825;28;20048;-50
2023/04/04 01:02:25;;;;;;;2.38;1.42;;;;;;;18.78;45.35;100954.41;5052850;28;20119;-48
2023/04/04 01:04:54;;;;;;;2.80;1.45;;;;;;;18.78;45.37;100953.56;5053340;28;20399;-57
2023/04/04 01:07:22;;;;;;;4.72;1.88;;;;;;;18.78;45.25;100958.91;5056521;28;20045;-57
2023/04/04 01:09:50;;;;;;;5.45;1.52;;;;;;;18.77;45.35;100944.66;5056636;28;20045;-57
2023/04/04 01:12:18;;;;;;;3.95;2.00;;;;;;;18.77;45.16;100955.38;5055558;28;20049;-57
2023/04/04 01:14:45;;;;;;;3.60;1.63;;;;;;;18.77;45.27;100958.06;5054967;28;20490;-56
2023/04/04 01:17:14;;;;;;;3.83;1.60;;;;;;;18.76;45.21;100956.38;5055378;28;20053;-57
2023/04/04 01:20:02;;;;;;;4.40;2.53;;;;;;;18.77;45.14;100958.06;5056401;28;20624;-57
2023/04/04 01:22:39;;;;;;;4.35;1.55;;;;;;;18.76;45.11;100953.69;5055337;28;20529;-56
2023/04/04 01:25:08;;;;;;;3.63;1.83;;;;;;;18.75;44.75;100960.00;5055151;28;20053;-49
2023/04/04 01:27:38;;;;;;;3.13;1.48;;;;;;;18.75;44.96;100962.69;5055441;28;20057;-49
2023/04/04 01:30:12;;;;;;;2.47;1.20;;;;;;;18.74;45.04;100955.63;5055419;28;20390;-50
2023/04/04 01:32:55;;;;;;;2.97;1.38;;;;;;;18.75;44.99;100959.16;5055229;28;20420;-48
2023/04/04 01:35:41;;;;;;;3.58;1.73;;;;;;;18.75;44.98;100953.78;5056298;28;20056;-57
2023/04/04 01:38:23;;;;;;;4.00;1.60;;;;;;;18.74;44.91;100955.63;5055103;28;20501;-57
2023/04/04 01:40:55;;;;;;;3.30;1.50;;;;;;;18.74;44.91;100958.31;5054321;28;20517;-57
2023/04/04 01:43:23;;;;;;;4.05;1.58;;;;;;;18.74;44.94;100968.19;5054958;28;20059;-57
2023/04/04 01:45:51;;;;;;;3.22;1.40;;;;;;;18.73;45.12;100964.66;5054390;28;20068;-57
2023/04/04 01:48:19;;;;;;;2.40;1.40;;;;;;;18.73;45.12;100964.66;5054603;28;20045;-57
2023/04/04 01:50:51;;;;;;;3.05;1.60;;;;;;;18.72;45.12;100962.13;5054044;28;20057;-57
2023/04/04 01:53:19;;;;;;;2.83;1.42;;;;;;;18.73;45.11;100971.84;5054727;28;20496;-57
2023/04/04 01:55:46;;;;;;;2.45;1.20;;;;;;;18.72;45.19;100970.16;5054781;28;20063;-50
2023/04/04 01:58:16;;;;;;;3.20;1.63;;;;;;;18.72;44.96;100975.53;5054793;28;20391;-50
2023/04/04 02:00:43;;;;;;;2.33;1.45;;;;;;;18.72;45.05;100965.66;5053908;28;20045;-49
2023/04/04 02:03:10;;;;;;;3.13;1.33;;;;;;;18.71;45.00;100969.28;5055652;28;20068;-51
2023/04/04 02:05:38;;;;;;;5.13;1.70;;;;;;;18.71;45.12;100969.28;5054504;28;20053;-57
2023/04/04 02:08:05;;;;;;;2.72;1.60;;;;;;;18.71;45.21;100973.78;5055427;28;20041;-56
2023/04/04 02:10:41;;;;;;;2.88;1.50;;;;;;;18.71;45.10;100963.91;5054452;28;20049;-57
2023/04/04 02:13:09;;;;;;;2.53;1.33;;;;;;;18.70;45.22;100966.72;5055428;28;20045;-57
2023/04/04 02:15:37;;;;;;;2.70;1.55;;;;;;;18.71;45.33;100968.44;5054341;28;20530;-49
2023/04/04 02:18:04;;;;;;;3.88;1.70;;;;;;;18.70;45.22;100970.25;5052809;28;20059;-51
2023/04/04 02:20:32;;;;;;;3.70;1.50;;;;;;;18.70;45.23;100978.31;5054068;28;20041;-49
2023/04/04 02:22:59;;;;;;;2.88;1.77;;;;;;;18.70;45.33;100977.47;5055237;28;20056;-50
2023/04/04 02:25:26;;;;;;;2.65;1.55;;;;;;;18.70;45.15;100969.41;5055082;28;20053;-57
2023/04/04 02:27:54;;;;;;;2.78;1.67;;;;;;;18.69;45.09;100976.59;5055040;28;20045;-58
2023/04/04 02:30:21;;;;;;;3.78;1.70;;;;;;;18.69;45.09;100975.72;5053932;28;20048;-57
2023/04/04 02:32:50;;;;;;;2.65;1.30;;;;;;;18.69;45.16;100973.06;5054905;28;20484;-56
2023/04/04 02:35:19;;;;;;;2.63;1.33;;;;;;;18.68;45.13;100979.41;5053780;28;20052;-52
2023/04/04 02:37:46;;;;;;;2.67;1.52;;;;;;;18.68;45.23;100969.53;5053900;28;20060;-50
2023/04/04 02:40:22;;;;;;;4.93;1.80;;;;;;;18.68;45.23;100968.66;5053818;28;20052;-50
2023/04/04 02:42:49;;;;;;;2.92;1.58;;;;;;;18.67;45.17;100975.00;5053751;28;20053;-51
2023/04/04 02:45:17;;;;;;;4.55;1.60;;;;;;;18.68;45.27;100968.66;5054613;28;20053;-50
2023/04/04 02:47:53;;;;;;;3.80;1.70;;;;;;;18.66;45.23;100968.78;5053663;28;20082;-49
2023/04/04 02:50:26;;;;;;;2.50;1.33;;;;;;;18.66;45.38;100976.81;5053045;28;20518;-51
2023/04/04 02:53:00;;;;;;;2.63;1.38;;;;;;;18.67;45.22;100966.94;5053906;28;20056;-51
2023/04/04 02:55:30;;;;;;;3.37;1.67;;;;;;;18.66;45.31;100960.72;5053598;28;20389;-57
2023/04/04 02:57:58;;;;;;;3.00;1.35;;;;;;;18.66;45.26;100966.09;5053522;28;20533;-57
2023/04/04 03:00:25;;;;;;;3.13;1.70;;;;;;;18.66;45.44;100960.72;5054292;28;20068;-57
2023/04/04 03:02:54;;;;;;;5.30;1.40;;;;;;;18.66;45.48;100963.41;5054328;28;20399;-57
2023/04/04 03:05:26;;;;;;;4.32;1.50;;;;;;;18.66;45.57;100965.25;5053573;28;20060;-49
2023/04/04 03:07:55;;;;;;;2.78;1.50;;;;;;;18.66;45.51;100960.72;5054304;28;20045;-49
2023/04/04 03:10:23;;;;;;;3.30;1.80;;;;;;;18.66;45.33;100960.72;5053385;28;20052;-49
2023/04/04 03:12:51;;;;;;;3.30;1.40;;;;;;;18.65;45.40;100967.09;5052873;28;20419;-50
2023/04/04 03:15:22;;;;;;;4.68;1.75;;;;;;;18.65;45.35;100959.03;5052567;28;20045;-57
2023/04/04 03:17:50;;;;;;;3.28;1.50;;;;;;;18.64;45.37;100962.69;5052759;28;20450;-57
2023/04/04 03:20:20;;;;;;;5.13;1.63;;;;;;;18.64;45.35;100970.75;5052973;28;20053;-57
2023/04/04 03:22:48;;;;;;;2.83;1.40;;;;;;;18.64;45.30;100965.38;5052717;28;20049;-57
2023/04/04 03:25:16;;;;;;;2.78;1.40;;;;;;;18.64;45.34;100964.53;5053913;28;20060;-51
2023/04/04 03:27:43;;;;;;;3.67;1.30;;;;;;;18.63;45.33;100955.59;5053467;28;20072;-48
2023/04/04 03:30:18;;;;;;;4.53;1.50;;;;;;;18.63;45.22;100965.50;5053001;28;20048;-49
2023/04/04 03:32:45;;;;;;;2.35;1.15;;;;;;;18.63;45.21;100962.81;5053702;28;20112;-49
2023/04/04 03:35:13;;;;;;;4.20;1.30;;;;;;;18.63;45.20;100968.16;5053896;28;20403;-51
2023/04/04 03:37:41;;;;;;;3.22;1.30;;;;;;;18.62;45.19;100975.38;5052063;28;20056;-50
2023/04/04 03:40:09;;;;;;;2.15;1.08;;;;;;;18.62;45.19;100972.69;5053738;28;20503;-49
2023/04/04 03:42:38;;;;;;;4.03;1.48;;;;;;;18.62;45.22;100979.88;5052716;28;20052;-50
2023/04/04 03:45:09;;;;;;;2.17;1.20;;;;;;;18.61;45.30;100973.66;5052388;28;20064;-57
2023/04/04 03:47:37;;;;;;;3.22;1.77;;;;;;;18.62;45.21;100979.88;5052359;28;20410;-57
2023/04/04 03:50:06;;;;;;;4.57;1.33;;;;;;;18.62;45.21;100982.56;5052543;28;20060;-57
2023/04/04 03:52:39;;;;;;;2.38;1.20;;;;;;;18.62;45.34;100993.28;5052178;28;20076;-57
2023/04/04 03:55:07;;;;;;;3.53;1.27;;;;;;;18.61;45.14;100984.38;5053653;28;20041;-57
2023/04/04 03:57:35;;;;;;;4.20;1.67;;;;;;;18.61;45.23;100983.53;5053414;28;20494;-57
2023/04/04 04:00:05;;;;;;;2.17;1.15;;;;;;;18.60;45.23;100980.00;5052310;28;20052;-57
2023/04/04 04:02:38;;;;;;;3.90;1.73;;;;;;;18.60;45.15;100982.69;5060132;28;20068;-57
2023/04/04 04:05:08;;;;;;;2.85;1.25;;;;;;;18.60;45.28;100988.06;5052070;28;20056;-52
2023/04/04 04:07:35;;;;;;;2.88;1.23;;;;;;;18.60;45.30;100989.88;5053478;28;20376;-52
2023/04/04 04:10:04;;;;;;;3.70;1.33;;;;;;;18.59;45.30;100991.69;5053358;28;20048;-49
2023/04/04 04:12:32;;;;;;;2.65;1.17;;;;;;;18.59;45.17;100986.31;5052310;28;20391;-49
2023/04/04 04:14:59;;;;;;;2.45;1.15;;;;;;;18.59;45.07;100991.69;5053265;28;20403;-57
2023/04/04 04:17:30;;;;;;;4.50;1.48;;;;;;;18.60;45.05;100995.25;5052265;28;20045;-57
2023/04/04 04:19:57;;;;;;;2.88;1.38;;;;;;;18.60;45.04;100997.94;5051695;28;20357;-57
2023/04/04 04:22:29;;;;;;;4.47;1.35;;;;;;;18.59;45.03;100991.69;5052205;28;20053;-57
2023/04/04 04:24:56;;;;;;;2.90;1.52;;;;;;;18.59;45.04;101006.94;5053234;28;20480;-57
2023/04/04 04:27:23;;;;;;;3.10;1.30;;;;;;;18.59;45.18;101002.41;5053094;28;20044;-57
2023/04/04 04:29:51;;;;;;;4.88;1.67;;;;;;;18.58;45.23;100999.88;5053093;28;20102;-57
2023/04/04 04:32:18;;;;;;;4.15;1.83;;;;;;;18.58;45.23;101007.91;5053174;28;20045;-57
2023/04/04 04:34:50;;;;;;;3.67;1.60;;;;;;;18.58;45.17;101013.28;5053462;28;20060;-57
2023/04/04 04:37:24;;;;;;;3.40;1.50;;;;;;;18.57;45.13;101012.44;5052122;28;20111;-57
2023/04/04 04:39:55;;;;;;;3.83;1.60;;;;;;;18.58;45.10;101018.63;5052413;28;20491;-57
2023/04/04 04:42:45;;;;;;;2.80;1.38;;;;;;;18.58;45.09;101021.31;5057303;28;20052;-57
2023/04/04 04:45:16;;;;;;;2.97;1.23;;;;;;;18.57;45.04;101024.97;5055884;28;20048;-49
2023/04/04 04:47:50;;;;;;;;;;;;;;;18.56;45.31;101031.31;5056452;28;20056;-50
2023/04/04 04:50:18;;;;;;;4.07;1.38;;;;;;;18.57;45.19;101027.66;5057155;28;20018;-50
2023/04/04 04:52:51;;;;;;;3.80;1.42;;;;;;;18.56;45.22;101032.19;5055839;28;20053;-50
2023/04/04 04:55:18;;;;;;;3.13;1.80;;;;;;;18.55;45.13;101030.44;5056987;28;20053;-57
2023/04/04 04:57:56;;;;;;;2.40;1.45;;;;;;;18.55;45.27;101030.44;5055585;28;20048;-57
2023/04/04 05:00:26;;;;;;;3.00;1.40;;;;;;;18.54;45.09;101026.91;5055074;28;20041;-57
2023/04/04 05:02:55;;;;;;;4.57;1.30;;;;;;;18.56;45.08;101028.66;5055685;28;20053;-57
2023/04/04 05:05:33;;;;;;;6.22;1.67;;;;;;;18.54;45.09;101036.78;5056998;28;20057;-57
2023/04/04 05:08:04;;;;;;;2.78;1.65;;;;;;;18.54;45.02;101031.44;5054696;28;20045;-57
2023/04/04 05:10:35;;;;;;;3.17;1.60;;;;;;;18.53;44.83;101033.25;5055301;28;20056;-57
2023/04/04 05:13:03;;;;;;;3.15;1.30;;;;;;;18.54;45.06;101034.13;5054775;28;20068;-57
2023/04/04 05:15:39;;;;;;;4.10;1.60;;;;;;;18.53;45.09;101040.47;5054923;28;20064;-50
2023/04/04 05:18:07;;;;;;;4.75;1.70;;;;;;;18.52;45.04;101041.44;5055420;28;20052;-50
2023/04/04 05:20:34;;;;;;;4.82;1.67;;;;;;;18.52;44.88;101052.16;5054785;28;20052;-49
2023/04/04 05:23:04;;;;;;;3.88;1.38;;;;;;;18.52;44.92;101049.47;5055355;28;20123;-52
2023/04/04 05:25:36;;;;;;;3.22;1.60;;;;;;;18.52;44.99;101060.22;5054614;28;20049;-49
2023/04/04 05:28:04;;;;;;;3.67;1.58;;;;;;;18.51;44.91;101058.47;5054809;28;20049;-49
2023/04/04 05:30:32;;;;;;;3.63;1.98;;;;;;;18.51;44.94;101058.47;5054695;28;20514;-50
2023/04/04 05:33:09;;;;;;;3.67;1.90;;;;;;;18.51;44.83;101074.56;5055204;28;20072;-49
2023/04/04 05:35:40;;;;;;;5.25;1.80;;;;;;;18.51;44.91;101069.19;5039212;28;20052;-49
2023/04/04 05:38:08;;;;;;;4.65;1.90;;;;;;;18.50;44.70;101068.34;5056125;28;20497;-51
2023/04/04 05:40:35;;;;;;;4.20;1.58;;;;;;;18.50;44.68;101065.66;5055996;28;20036;-50
2023/04/04 05:43:08;;;;;;;2.88;1.45;;;;;;;18.50;44.84;101067.50;5056161;28;20049;-48
2023/04/04 05:45:47;;;;;;;3.92;1.60;;;;;;;18.51;44.81;101074.56;5055780;28;20056;-50
2023/04/04 05:48:15;;;;;;;2.45;1.30;;;;;;;18.49;44.91;101074.69;5054313;28;20055;-51
2023/04/04 05:50:51;;;;;;;2.25;1.10;;;;;;;18.49;44.85;101073.84;5054516;28;20068;-49
2023/04/04 05:53:29;;;;;;;5.70;1.70;;;;;;;18.50;44.85;101078.22;5053956;28;20049;-52
2023/04/04 05:55:57;;;;;;;3.88;1.55;;;;;;;18.49;44.77;101072.00;5054719;28;20060;-49
2023/04/04 05:58:29;;;;;;;3.17;1.50;;;;;;;18.49;44.77;101079.22;5054899;28;20499;-49
2023/04/04 06:00:58;;;;;;;2.65;1.45;;;;;;;18.49;44.72;101087.25;5054544;28;20403;-48
2023/04/04 06:03:27;;;;;;;4.00;1.50;;;;;;;18.49;44.52;101081.88;5054582;28;20044;-49
2023/04/04 06:05:57;;;;;;;3.45;1.20;;;;;;;18.49;44.51;101084.56;5055612;28;20391;-49
2023/04/04 06:08:24;;;;;;;4.13;1.40;;;;;;;18.49;44.62;101089.94;5055439;28;20472;-49
2023/04/04 06:10:54;;;;;;;3.47;1.30;;;;;;;18.48;44.60;101078.34;5054378;28;20049;-54
2023/04/04 06:13:22;;;;;;;2.33;1.23;;;;;;;18.49;44.36;101090.78;5054151;28;20391;-50
2023/04/04 06:15:54;;;;;;;3.47;1.30;;;;;;;18.48;44.46;101086.41;5053757;28;20057;-56
2023/04/04 06:18:21;;;;;;;4.55;1.38;;;;;;;18.49;44.13;101089.94;5053943;28;20060;-57
2023/04/04 06:20:48;;;;;;;3.22;1.20;;;;;;;18.49;44.10;101087.25;5054205;28;20044;-57
2023/04/04 06:23:16;;;;;;;3.20;1.65;;;;;;;18.48;44.16;101097.13;5053856;28;20055;-57
2023/04/04 06:25:47;;;;;;;2.40;1.30;;;;;;;18.49;43.88;101090.78;5053665;28;20060;-57
2023/04/04 06:28:16;;;;;;;4.25;1.35;;;;;;;18.49;43.59;101089.94;5053743;28;20060;-57
2023/04/04 06:30:46;;;;;;;4.80;1.83;;;;;;;18.49;43.80;101096.13;5054164;28;20060;-57
2023/04/04 06:33:16;;;;;;;3.10;1.45;;;;;;;18.50;43.41;101097.84;5054038;28;20056;-57
2023/04/04 06:35:47;;;;;;;3.28;1.75;;;;;;;18.50;43.60;101094.31;5053365;28;20064;-56
2023/04/04 06:38:15;;;;;;;2.50;1.40;;;;;;;18.51;43.26;101101.38;5055041;28;20045;-57
2023/04/04 06:40:42;;;;;;;3.65;1.38;;;;;;;18.50;42.58;101105.03;5053004;28;20057;-57
2023/04/04 06:43:10;;;;;;;2.90;1.33;;;;;;;18.51;42.82;101110.28;5053840;28;20048;-57
2023/04/04 06:45:41;;;;;;;2.75;1.33;;;;;;;18.52;42.33;101108.47;5053354;28;20495;-57
2023/04/04 06:48:09;;;;;;;3.47;1.23;;;;;;;18.52;42.58;101109.31;5054880;28;20061;-56
2023/04/04 06:50:37;;;;;;;2.45;1.17;;;;;;;18.54;42.95;101111.88;5053293;28;20064;-57
2023/04/04 06:53:08;;;;;;;4.97;1.83;;;;;;;18.54;43.01;101107.34;5052668;28;20446;-49
2023/04/04 06:55:35;;;;;;;3.65;1.80;;;;;;;18.54;42.91;101115.41;5052922;28;20492;-50
2023/04/04 06:58:03;;;;;;;2.90;1.20;;;;;;;18.54;42.36;101107.34;5054635;28;20045;-48
2023/04/04 07:00:30;;;;;;;6.18;1.80;;;;;;;18.55;42.07;101113.56;5054690;28;20045;-49
2023/04/04 07:02:58;;;;;;;4.22;1.70;;;;;;;18.56;42.63;101109.09;5053788;28;20041;-50
2023/04/04 07:05:26;;;;;;;3.80;1.50;;;;;;;18.56;42.68;101115.28;5054457;28;20419;-52
2023/04/04 07:07:55;;;;;;;8.77;1.63;;;;;;;18.57;42.12;101121.50;5054433;28;20045;-56
2023/04/04 07:10:23;;;;;;;5.43;2.10;;;;;;;18.58;41.27;101112.47;5054258;28;20041;-55
2023/04/04 07:12:51;;;;;;;8.82;1.85;;;;;;;18.59;42.11;101112.34;5054331;28;20041;-49
2023/04/04 07:15:18;;;;;;;3.85;1.65;;;;;;;18.61;42.46;101114.94;5054358;28;20048;-48
2023/04/04 07:17:46;;;;;;;5.30;1.40;;;;;;;18.62;43.59;101111.28;5053800;28;20049;-48
2023/04/04 07:20:13;;;;;;;5.13;1.70;;;;;;;18.63;41.40;101115.66;5053395;28;20060;-49
2023/04/04 07:22:43;;;;;;;4.97;1.67;;;;;;;18.60;38.67;101114.09;5053889;28;20047;-59
2023/04/04 07:25:14;;;;;;;4.93;1.88;;;;;;;18.57;39.01;101111.63;5066175;28;20059;-50
2023/04/04 07:27:41;;;;;;;4.68;1.83;;;;;;;18.51;37.26;101104.94;5073541;28;20051;-50
2023/04/04 07:30:09;;;;;;;4.38;1.40;;;;;;;18.48;36.39;101105.16;5073946;28;20048;-50
2023/04/04 07:32:37;;;;;;;5.30;1.85;;;;;;;18.44;35.30;101108.22;5073465;28;20040;-52
2023/04/04 07:35:05;;;;;;;5.43;1.85;;;;;;;18.38;34.94;101100.63;5062952;28;20052;-58
2023/04/04 07:37:36;;;;;;;4.05;1.33;;;;;;;18.35;34.74;101103.53;5053596;28;20045;-58
2023/04/04 07:40:08;;;;;;;2.90;1.25;;;;;;;18.31;34.27;101104.75;5052852;28;20431;-56
2023/04/04 07:42:36;;;;;;;4.75;1.75;;;;;;;18.27;33.94;101114.84;5053553;28;20049;-58
2023/04/04 07:45:04;;;;;;;4.95;1.63;;;;;;;18.24;32.87;101115.09;5053654;28;20071;-47
2023/04/04 07:47:31;;;;;;;3.58;1.40;;;;;;;18.16;33.38;101118.38;5053514;28;20049;-49
2023/04/04 07:50:00;;;;;;;6.00;1.40;;;;;;;18.13;33.17;101107.88;5053326;28;20056;-49
2023/04/04 07:52:27;;;;;;;4.68;1.27;;;;;;;18.13;33.29;101120.44;5053192;28;20044;-53
2023/04/04 07:54:54;;;;;;;3.47;1.45;;;;;;;18.10;33.87;101116.13;5053472;28;20494;-52
2023/04/04 07:57:22;;;;;;;5.63;1.75;;;;;;;18.13;33.39;101109.72;5053357;28;20049;-50
2023/04/04 07:59:49;;;;;;;3.20;1.42;;;;;;;18.16;33.85;101114.84;5053616;28;20049;-50
2023/04/04 08:02:16;;;;;;;3.60;1.67;;;;;;;18.21;33.62;101120.69;5053172;28;20052;-51
2023/04/04 08:04:44;;;;;;;4.35;1.55;;;;;;;18.24;33.28;101124.00;5053174;28;20371;-53
2023/04/04 08:07:11;;;;;;;4.00;1.50;;;;;;;18.26;32.92;101122.03;5053238;28;20041;-47
2023/04/04 08:09:38;;;;;;;3.38;1.58;;;;;;;18.28;32.54;101117.44;5053186;28;20045;-51
2023/04/04 08:12:06;;;;;;;3.90;1.52;;;;;;;18.30;31.72;101119.97;5053141;28;20052;-48
2023/04/04 08:14:34;;;;;;;4.10;1.60;;;;;;;18.32;32.24;101135.97;5053319;28;20045;-49
2023/04/04 08:17:01;;;;;;;2.25;1.15;;;;;;;18.33;33.53;101125.13;5053033;28;20049;-49
2023/04/04 08:19:29;;;;;;;4.15;1.55;;;;;;;18.36;32.93;101127.56;5053201;28;20479;-49
2023/04/04 08:21:56;;;;;;;5.18;1.58;;;;;;;18.37;33.36;101129.25;5053001;28;20044;-48
2023/04/04 08:24:24;;;;;;;4.10;1.38;;;;;;;18.40;34.23;101129.03;5053100;28;20067;-54
2023/04/04 08:26:54;;;;;;;5.45;2.20;;;;;;;18.41;32.07;101130.72;5053416;28;20098;-49
2023/04/04 08:29:33;;;;;;;5.38;1.20;;;;;;;18.40;31.62;101126.34;5053071;28;20052;-50
2023/04/04 08:32:00;;;;;;;3.80;1.70;;;;;;;18.40;31.50;101137.06;5052827;28;20052;-50
2023/04/04 08:34:28;;;;;;;3.40;1.15;;;;;;;18.40;31.21;101122.81;5053103;28;20408;-48
2023/04/04 08:36:55;;;;;;;4.40;1.52;;;;;;;18.40;30.84;101125.50;5052516;28;20071;-52
2023/04/04 08:39:23;;;;;;;4.25;1.60;;;;;;;18.38;30.61;101124.75;5052793;28;20056;-49
2023/04/04 08:42:00;;;;;;;3.75;1.92;;;;;;;18.38;30.97;101132.78;5052484;28;20053;-46
2023/04/04 08:44:28;;;;;;;5.22;1.70;;;;;;;18.39;30.66;101121.09;5052368;28;20375;-51
2023/04/04 08:46:58;;;;;;;4.05;1.30;;;;;;;18.39;32.59;101119.28;5052830;28;20052;-49
2023/04/04 08:49:28;;;;;;;5.90;1.35;;;;;;;18.42;33.74;101123.53;5052906;28;20506;-47
2023/04/04 08:51:57;;;;;;;5.57;1.23;;;;;;;18.44;34.79;101129.66;5052843;28;20044;-52
2023/04/04 08:54:25;;;;;;;4.38;1.48;;;;;;;18.46;35.57;101131.22;5052937;28;20056;-53
2023/04/04 08:56:53;;;;;;;4.22;1.42;;;;;;;18.48;36.04;101123.09;5051037;28;20052;-47
2023/04/04 08:59:20;;;;;;;2.95;1.20;;;;;;;18.49;36.18;101120.28;5052828;28;20051;-55
2023/04/04 09:01:50;;;;;;;5.35;1.80;;;;;;;18.51;36.38;101125.50;5052684;28;20045;-53
2023/04/04 09:04:20;;;;;;;2.38;0.98;;;;;;;18.51;36.48;101123.69;5052697;28;20398;-49
2023/04/04 09:06:48;;;;;;;3.42;1.02;;;;;;;18.53;36.78;101131.63;5052621;28;20041;-48
2023/04/04 09:09:18;;;;;;;3.05;1.00;;;;;;;18.53;37.05;101128.94;5051290;28;20053;-50
2023/04/04 09:11:47;;;;;;;3.88;1.13;;;;;;;18.54;36.72;101125.28;5052412;28;20106;-51
2023/04/04 09:14:14;;;;;;;4.28;1.20;;;;;;;18.54;37.21;101122.59;5052267;28;20045;-47
2023/04/04 09:16:41;;;;;;;2.88;1.27;;;;;;;18.56;37.18;101126.03;5052575;28;20052;-57
2023/04/04 09:19:09;;;;;;;2.33;0.90;;;;;;;18.57;37.18;101124.19;5052445;28;20049;-57
2023/04/04 09:21:36;;;;;;;3.90;1.27;;;;;;;18.58;37.17;101123.22;5052536;28;20472;-56
2023/04/04 09:24:04;;;;;;;3.10;1.33;;;;;;;18.59;37.35;101130.28;5052314;28;20049;-49
2023/04/04 09:26:50;;;;;;;2.90;1.17;;;;;;;18.59;37.33;101123.06;5053859;28;20052;-51
2023/04/04 09:29:21;;;;;;;2.83;1.10;;;;;;;18.59;37.40;101133.81;5055965;28;20055;-53
2023/04/04 09:31:49;;;;;;;2.20;0.98;;;;;;;18.60;37.13;101129.31;5055007;28;20060;-52
2023/04/04 09:34:19;;;;;;;3.80;1.48;;;;;;;18.61;37.34;101125.66;5055890;28;20033;-51
2023/04/04 09:36:47;;;;;;;3.42;1.10;;;;;;;18.60;37.74;101122.13;5054222;28;20045;-49
2023/04/04 09:39:18;;;;;;;2.67;1.23;;;;;;;18.63;37.64;101126.38;5056085;28;20045;-48
2023/04/04 09:41:46;;;;;;;3.88;1.25;;;;;;;18.62;37.65;101130.03;5056250;28;20476;-49
2023/04/04 09:44:15;;;;;;;3.80;1.05;;;;;;;18.63;37.74;101123.69;5055797;28;20049;-53
2023/04/04 09:46:42;;;;;;;3.20;1.20;;;;;;;18.63;37.32;101134.41;5055525;28;20060;-49
2023/04/04 09:49:18;;;;;;;3.58;1.17;;;;;;;18.63;37.92;101127.22;5054922;28;20045;-48
2023/04/04 09:51:51;;;;;;;5.90;1.42;;;;;;;18.64;37.52;101120.06;5055709;28;20059;-51
2023/04/04 09:54:22;;;;;;;3.95;1.20;;;;;;;18.65;38.06;101127.97;5055682;28;20045;-54
2023/04/04 09:56:56;;;;;;;2.85;1.38;;;;;;;18.65;37.97;101135.16;5055214;28;20479;-53
2023/04/04 09:59:23;;;;;;;2.38;1.15;;;;;;;18.66;37.88;101123.47;5055544;28;20056;-47
2023/04/04 10:01:53;;;;;;;3.47;1.60;;;;;;;18.65;37.71;101122.63;5055748;28;20068;-48
2023/04/04 10:04:25;;;;;;;2.13;1.10;;;;;;;18.65;37.60;101127.97;5055551;28;20041;-49
2023/04/04 10:06:55;;;;;;;2.70;1.20;;;;;;;18.65;37.64;101119.94;5054187;28;20056;-50
2023/04/04 10:09:22;;;;;;;4.95;1.15;;;;;;;18.66;37.46;101120.78;5055269;28;20368;-49
2023/04/04 10:11:49;;;;;;;2.72;1.00;;;;;;;18.66;37.50;101118.09;5055371;28;20041;-49
2023/04/04 10:14:17;;;;;;;2.85;1.10;;;;;;;18.65;37.40;101111.88;5055211;28;20052;-55
2023/04/04 10:16:45;;;;;;;3.78;1.58;;;;;;;18.65;37.66;101114.56;5055098;28;20491;-53
2023/04/04 10:19:17;;;;;;;3.55;1.30;;;;;;;18.66;37.43;101123.47;5055501;28;20045;-51
2023/04/04 10:21:46;;;;;;;2.65;1.20;;;;;;;18.65;37.10;101114.56;5055434;28;20060;-56
2023/04/04 10:24:13;;;;;;;2.65;1.13;;;;;;;18.66;38.16;101112.72;5055001;28;20515;-50
2023/04/04 10:26:43;;;;;;;4.75;1.30;;;;;;;18.65;37.84;101111.88;5055053;28;20045;-49
2023/04/04 10:29:11;;;;;;;2.72;1.33;;;;;;;18.64;38.19;101107.50;5055216;28;20459;-49
2023/04/04 10:31:43;;;;;;;3.58;1.45;;;;;;;18.65;38.04;101119.94;5054935;28;20049;-51
2023/04/04 10:34:27;;;;;;;5.90;1.13;;;;;;;18.64;38.27;101118.22;5055095;28;20041;-49
2023/04/04 10:37:07;;;;;;;3.22;0.90;;;;;;;18.67;38.63;101111.75;5055111;28;20056;-53
2023/04/04 10:39:54;;;;;;;4.25;1.02;;;;;;;18.67;37.80;101098.34;5054302;28;20041;-54
2023/04/04 10:42:24;;;;;;;4.88;1.00;;;;;;;18.67;38.51;101101.88;5054861;28;20049;-50
2023/04/04 10:44:52;;;;;;;2.55;1.10;;;;;;;18.68;38.08;101105.44;5054152;28;20471;-50
2023/04/04 10:47:21;;;;;;;2.38;1.25;;;;;;;18.68;37.82;101111.66;5054475;28;20052;-50
2023/04/04 10:49:50;;;;;;;2.72;1.10;;;;;;;18.68;37.69;101108.13;5054335;28;20042;-52
2023/04/04 10:52:20;;;;;;;4.82;1.30;;;;;;;18.68;38.26;101105.44;5054442;28;20056;-49
2023/04/04 10:54:53;;;;;;;3.95;1.10;;;;;;;18.69;37.65;101107.13;5054200;28;20068;-49
2023/04/04 10:57:22;;;;;;;1.90;1.00;;;;;;;18.68;37.76;101108.97;5054309;28;20475;-50
2023/04/04 11:00:23;;;;;;;2.60;1.23;;;;;;;18.69;38.18;101101.78;5054495;28;20052;-50
2023/04/04 11:02:58;;;;;;;3.45;1.13;;;;;;;18.69;37.94;101108.00;5053827;28;20061;-50
2023/04/04 11:05:39;;;;;;;3.10;1.42;;;;;;;18.71;39.33;101108.72;5065766;28;20048;-50
2023/04/04 11:08:12;;;;;;;2.50;1.10;;;;;;;18.70;41.86;101104.34;5073927;28;20055;-51
2023/04/04 11:10:42;;;;;;;;;;;;;;;18.68;41.43;101102.75;5074162;28;20055;-51
2023/04/04 11:13:15;;;;;;;3.75;1.70;;;;;;;18.67;39.51;101114.44;5074489;28;19920;-51
2023/04/04 11:15:46;;;;;;;;;;;;;;;18.65;39.76;101113.72;5071864;28;20056;-52
2023/04/04 11:18:14;;;;;;;3.72;1.33;;;;;;;18.62;39.76;101097.84;5054228;28;19921;-50
2023/04/04 11:21:05;;;;;;;2.70;1.55;;;;;;;18.61;40.74;101096.16;5054132;28;20476;-48
2023/04/04 11:23:48;;;;;;;2.83;1.20;;;;;;;18.60;41.22;101107.88;5053700;28;20493;-50
2023/04/04 11:26:25;;;;;;;3.35;1.58;;;;;;;18.57;44.09;101103.59;5054046;28;20372;-52
2023/04/04 11:28:59;;;;;;;2.53;1.33;;;;;;;18.49;42.98;101097.97;5053986;28;20045;-51
2023/04/04 11:31:33;;;;;;;1.92;1.10;;;;;;;18.45;45.33;101096.50;5052775;28;20056;-49
2023/04/04 11:34:03;;;;;;;2.83;1.23;;;;;;;18.38;44.90;101101.47;5053966;28;20051;-49
2023/04/04 11:36:47;;;;;;;5.03;1.60;;;;;;;18.31;41.57;101091.34;5053999;28;20045;-52
2023/04/04 11:39:15;;;;;;;4.32;1.42;;;;;;;18.26;44.27;101089.88;5053838;28;20060;-53